createdAt,value
2019-05-26T00:01:29.491Z,100056.01
2019-05-26T00:03:56.924Z,100054.63
2019-05-26T00:06:25.339Z,100052.02
2019-05-26T00:08:52.666Z,100050.45
2019-05-26T00:11:20.212Z,100049.97
2019-05-26T00:13:47.510Z,100050.80
2019-05-26T00:16:14.881Z,100046.51
2019-05-26T00:18:42.413Z,100045.50
2019-05-26T00:21:09.702Z,100047.55
2019-05-26T00:23:37.069Z,100042.94
2019-05-26T00:26:04.472Z,100046.77
2019-05-26T00:28:31.891Z,100038.76
2019-05-26T00:30:59.191Z,100035.08
2019-05-26T00:33:26.512Z,100040.59
2019-05-26T00:35:53.865Z,100034.67
2019-05-26T00:38:21.253Z,100039.41
2019-05-26T00:40:48.483Z,100032.80
2019-05-26T00:43:16.091Z,100030.58
2019-05-26T00:45:43.885Z,100025.51
2019-05-26T00:48:11.197Z,100024.30
2019-05-26T00:50:38.466Z,100025.91
2019-05-26T00:53:05.851Z,100020.93
2019-05-26T00:55:33.150Z,100026.13
2019-05-26T00:58:00.686Z,100031.09
2019-05-26T01:00:37.819Z,100025.16
2019-05-26T01:03:05.448Z,100026.97
2019-05-26T01:05:33.146Z,100018.45
2019-05-26T01:08:06.372Z,100024.11
2019-05-26T01:10:30.107Z,100017.83
2019-05-26T01:12:58.690Z,100019.54
2019-05-26T01:15:26.066Z,100023.68
2019-05-26T01:17:53.362Z,100025.99
2019-05-26T01:20:20.638Z,100018.51
2019-05-26T01:22:47.907Z,100019.34
2019-05-26T01:25:15.630Z,100018.97
2019-05-26T01:27:42.918Z,100017.50
2019-05-26T01:30:10.385Z,100017.47
2019-05-26T01:32:37.738Z,100011.34
2019-05-26T01:35:05.324Z,100008.34
2019-05-26T01:37:32.801Z,100010.81
2019-05-26T01:40:00.059Z,100013.33
2019-05-26T01:42:28.044Z,100013.70
2019-05-26T01:44:55.348Z,100009.67
2019-05-26T01:47:22.629Z,100004.22
2019-05-26T01:49:49.898Z,99999.92
2019-05-26T01:52:17.183Z,100001.94
2019-05-26T01:54:44.423Z,99995.47
2019-05-26T01:57:11.743Z,99996.47
2019-05-26T01:59:38.989Z,99997.79
2019-05-26T02:02:06.304Z,99991.49
2019-05-26T02:04:33.690Z,99989.34
2019-05-26T02:07:00.936Z,99996.11
2019-05-26T02:09:28.348Z,99983.67
2019-05-26T02:11:55.631Z,99981.28
2019-05-26T02:14:22.905Z,99974.42
2019-05-26T02:16:50.231Z,99979.38
2019-05-26T02:19:17.512Z,99974.21
2019-05-26T02:21:45.829Z,99971.16
2019-05-26T02:24:13.075Z,99964.31
2019-05-26T02:26:40.323Z,99974.25
2019-05-26T02:29:07.639Z,99976.36
2019-05-26T02:31:34.962Z,99974.97
2019-05-26T02:34:02.270Z,99967.41
2019-05-26T02:36:29.532Z,99966.42
2019-05-26T02:39:02.758Z,99961.05
2019-05-26T02:41:25.978Z,99964.19
2019-05-26T02:43:53.234Z,99954.03
2019-05-26T02:46:20.731Z,99950.81
2019-05-26T02:48:47.983Z,99956.95
2019-05-26T02:51:15.236Z,99953.94
2019-05-26T02:53:42.546Z,99954.44
2019-05-26T02:56:10.068Z,99951.41
2019-05-26T02:58:37.330Z,99956.62
2019-05-26T03:01:04.550Z,99956.38
2019-05-26T03:03:31.932Z,99964.17
2019-05-26T03:05:59.407Z,99952.89
2019-05-26T03:08:27.465Z,99959.20
2019-05-26T03:10:57.030Z,99951.20
2019-05-26T03:13:25.675Z,99950.59
2019-05-26T03:15:54.765Z,99946.23
2019-05-26T03:18:22.038Z,99951.70
2019-05-26T03:20:49.446Z,99953.58
2019-05-26T03:23:16.730Z,99947.78
2019-05-26T03:25:43.972Z,99942.67
2019-05-26T03:28:11.241Z,99941.64
2019-05-26T03:30:38.511Z,99941.84
2019-05-26T03:33:05.841Z,99936.68
2019-05-26T03:35:33.158Z,99934.19
2019-05-26T03:38:00.525Z,99937.23
2019-05-26T03:40:27.808Z,99944.84
2019-05-26T03:42:55.066Z,99938.82
2019-05-26T03:45:24.807Z,99936.11
2019-05-26T03:47:52.072Z,99927.32
2019-05-26T03:50:19.367Z,99926.61
2019-05-26T03:52:46.659Z,99928.12
2019-05-26T03:55:13.912Z,99930.05
2019-05-26T03:57:41.161Z,99926.64
2019-05-26T04:00:08.446Z,99928.86
2019-05-26T04:02:35.832Z,99931.57
2019-05-26T04:05:03.826Z,99922.48
2019-05-26T04:07:31.207Z,99931.77
2019-05-26T04:10:05.223Z,99913.03
2019-05-26T04:12:27.657Z,99919.70
2019-05-26T04:14:54.879Z,99915.00
2019-05-26T04:17:22.119Z,99912.61
2019-05-26T04:19:49.382Z,99918.87
2019-05-26T04:22:16.630Z,99917.17
2019-05-26T04:24:43.883Z,99915.64
2019-05-26T04:27:11.246Z,99917.17
2019-05-26T04:29:39.506Z,99923.23
2019-05-26T04:32:06.772Z,99919.90
2019-05-26T04:34:34.058Z,99919.83
2019-05-26T04:37:01.337Z,99918.33
2019-05-26T04:39:28.723Z,99916.33
2019-05-26T04:41:56.009Z,99914.16
2019-05-26T04:44:24.278Z,99915.59
2019-05-26T04:46:51.542Z,99913.30
2019-05-26T04:49:18.794Z,99915.81
2019-05-26T04:51:46.043Z,99916.54
2019-05-26T04:54:13.339Z,99914.67
2019-05-26T04:56:40.841Z,99919.22
2019-05-26T04:59:09.336Z,99920.52
2019-05-26T05:01:37.325Z,99918.44
2019-05-26T05:04:04.613Z,99920.88
2019-05-26T05:06:32.859Z,99920.25
2019-05-26T05:09:00.559Z,99919.85
2019-05-26T05:11:27.869Z,99920.99
2019-05-26T05:13:55.210Z,99922.72
2019-05-26T05:16:22.595Z,99918.63
2019-05-26T05:18:49.934Z,99920.64
2019-05-26T05:21:17.269Z,99919.03
2019-05-26T05:23:44.530Z,99916.41
2019-05-26T05:26:11.773Z,99917.47
2019-05-26T05:28:39.043Z,99918.31
2019-05-26T05:31:06.343Z,99908.94
2019-05-26T05:33:33.651Z,99911.38
2019-05-26T05:36:00.890Z,99911.45
2019-05-26T05:38:28.228Z,99909.56
2019-05-26T05:40:59.961Z,99911.92
2019-05-26T05:43:25.741Z,99908.77
2019-05-26T05:45:53.030Z,99912.03
2019-05-26T05:48:20.323Z,99915.17
2019-05-26T05:50:47.576Z,99913.47
2019-05-26T05:53:14.835Z,99911.52
2019-05-26T05:55:42.355Z,99904.33
2019-05-26T05:58:09.808Z,99900.69
2019-05-26T06:00:37.163Z,99899.16
2019-05-26T06:03:04.416Z,99901.55
2019-05-26T06:05:31.984Z,99902.27
2019-05-26T06:07:59.406Z,99902.13
2019-05-26T06:10:26.750Z,99893.73
2019-05-26T06:12:54.188Z,99894.96
2019-05-26T06:15:21.529Z,99902.42
2019-05-26T06:17:48.944Z,99893.66
2019-05-26T06:20:16.329Z,99896.01
2019-05-26T06:22:43.591Z,99890.55
2019-05-26T06:25:10.893Z,99886.47
2019-05-26T06:27:38.254Z,99900.78
2019-05-26T06:30:05.748Z,99888.52
2019-05-26T06:32:33.011Z,99896.62
2019-05-26T06:35:00.290Z,99894.95
2019-05-26T06:37:27.570Z,99895.86
2019-05-26T06:39:54.795Z,99892.71
2019-05-26T06:42:22.072Z,99897.71
2019-05-26T06:44:53.690Z,99898.18
2019-05-26T06:47:18.466Z,99903.23
2019-05-26T06:49:45.794Z,99898.84
2019-05-26T06:52:13.100Z,99895.64
2019-05-26T06:54:40.368Z,99898.05
2019-05-26T06:57:07.901Z,99902.30
2019-05-26T06:59:35.165Z,99898.33
2019-05-26T07:02:02.427Z,99894.09
2019-05-26T07:04:29.688Z,99899.23
2019-05-26T07:06:56.937Z,99894.05
2019-05-26T07:09:24.293Z,99894.23
2019-05-26T07:11:59.071Z,99893.61
2019-05-26T07:14:20.718Z,99882.70
2019-05-26T07:16:47.978Z,99886.22
2019-05-26T07:19:15.217Z,99890.20
2019-05-26T07:21:42.536Z,99889.22
2019-05-26T07:24:09.809Z,99891.19
2019-05-26T07:26:38.073Z,99893.33
2019-05-26T07:29:05.328Z,99892.89
2019-05-26T07:31:32.636Z,99890.81
2019-05-26T07:33:59.877Z,99890.33
2019-05-26T07:36:27.171Z,99891.31
2019-05-26T07:38:54.435Z,99898.72
2019-05-26T07:41:21.728Z,99895.14
2019-05-26T07:43:49.013Z,99893.28
2019-05-26T07:46:16.287Z,99889.63
2019-05-26T07:48:43.565Z,99877.48
2019-05-26T07:51:11.034Z,99879.30
2019-05-26T07:53:38.310Z,99888.48
2019-05-26T07:56:05.899Z,99892.11
2019-05-26T07:58:33.272Z,99895.73
2019-05-26T08:01:00.535Z,99895.56
2019-05-26T08:03:27.809Z,99902.15
2019-05-26T08:05:55.672Z,99891.64
2019-05-26T08:08:23.054Z,99888.73
2019-05-26T08:10:50.430Z,99884.21
2019-05-26T08:13:26.450Z,99878.81
2019-05-26T08:15:53.945Z,99881.02
2019-05-26T08:18:29.302Z,99873.48
2019-05-26T08:20:56.719Z,99874.72
2019-05-26T08:23:24.069Z,99880.47
2019-05-26T08:25:51.475Z,99876.12
2019-05-26T08:28:18.918Z,99869.13
2019-05-26T08:30:46.323Z,99863.32
2019-05-26T08:33:13.677Z,99864.56
2019-05-26T08:35:41.138Z,99859.88
2019-05-26T08:38:08.721Z,99863.11
2019-05-26T08:40:36.161Z,99861.78
2019-05-26T08:43:03.766Z,99854.58
2019-05-26T08:45:31.042Z,99853.99
2019-05-26T08:48:00.500Z,99847.66
2019-05-26T08:50:27.835Z,99841.86
2019-05-26T08:52:55.254Z,99837.05
2019-05-26T08:55:22.623Z,99835.86
2019-05-26T08:57:49.979Z,99826.23
2019-05-26T09:00:17.557Z,99836.08
2019-05-26T09:02:44.853Z,99830.92
2019-05-26T09:05:13.582Z,99822.96
2019-05-26T09:07:41.412Z,99815.30
2019-05-26T09:10:09.325Z,99820.84
2019-05-26T09:12:36.774Z,99822.90
2019-05-26T09:15:05.802Z,99828.41
2019-05-26T09:17:33.240Z,99829.53
2019-05-26T09:20:00.527Z,99809.23
2019-05-26T09:22:27.766Z,99826.66
2019-05-26T09:24:55.079Z,99819.38
2019-05-26T09:27:22.314Z,99817.39
2019-05-26T09:29:49.721Z,99823.95
2019-05-26T09:32:17.247Z,99825.61
2019-05-26T09:34:44.856Z,99833.89
2019-05-26T09:37:12.181Z,99828.45
2019-05-26T09:39:39.545Z,99837.42
2019-05-26T09:42:06.852Z,99824.24
2019-05-26T09:44:34.144Z,99826.19
2019-05-26T09:47:02.605Z,99834.25
2019-05-26T09:49:29.977Z,99825.14
2019-05-26T09:51:58.347Z,99836.27
2019-05-26T09:54:25.608Z,99833.83
2019-05-26T09:56:52.854Z,99835.31
2019-05-26T09:59:20.112Z,99830.31
2019-05-26T10:01:47.423Z,99830.46
2019-05-26T10:04:15.693Z,99829.86
2019-05-26T10:06:43.116Z,99828.00
2019-05-26T10:09:10.372Z,99827.23
2019-05-26T10:11:37.715Z,99829.26
2019-05-26T10:14:05.099Z,99817.17
2019-05-26T10:16:32.444Z,99821.39
2019-05-26T10:18:59.824Z,99809.23
2019-05-26T10:21:27.075Z,99815.81
2019-05-26T10:23:54.406Z,99808.78
2019-05-26T10:26:21.755Z,99795.67
2019-05-26T10:28:49.035Z,99797.82
2019-05-26T10:31:16.286Z,99790.59
2019-05-26T10:33:43.583Z,99786.77
2019-05-26T10:36:10.862Z,99785.10
2019-05-26T10:38:38.078Z,99801.59
2019-05-26T10:41:05.456Z,99790.88
2019-05-26T10:43:46.416Z,99791.78
2019-05-26T10:46:03.026Z,99797.33
2019-05-26T10:48:30.305Z,99795.57
2019-05-26T10:50:57.593Z,99781.78
2019-05-26T10:53:24.894Z,99776.17
2019-05-26T10:55:52.161Z,99778.59
2019-05-26T10:58:19.676Z,99781.68
2019-05-26T11:00:48.304Z,99784.70
2019-05-26T11:03:16.945Z,99775.17
2019-05-26T11:05:46.134Z,99772.48
2019-05-26T11:08:16.539Z,99775.58
2019-05-26T11:10:44.237Z,99772.59
2019-05-26T11:13:11.807Z,99781.68
2019-05-26T11:15:39.224Z,99764.19
2019-05-26T11:18:06.597Z,99769.23
2019-05-26T11:20:33.843Z,99756.95
2019-05-26T11:23:01.111Z,99769.80
2019-05-26T11:25:28.468Z,99756.70
2019-05-26T11:27:55.722Z,99761.91
2019-05-26T11:30:23.097Z,99755.38
2019-05-26T11:32:50.384Z,99755.10
2019-05-26T11:35:19.458Z,99756.98
2019-05-26T11:37:46.760Z,99750.74
2019-05-26T11:40:15.675Z,99755.00
2019-05-26T11:42:45.068Z,99756.20
2019-05-26T11:45:12.370Z,99759.46
2019-05-26T11:47:39.654Z,99753.72
2019-05-26T11:50:07.291Z,99748.84
2019-05-26T11:52:34.541Z,99744.91
2019-05-26T11:55:01.909Z,99754.53
2019-05-26T11:57:29.404Z,99746.77
2019-05-26T11:59:56.851Z,99745.82
2019-05-26T12:02:26.288Z,99741.42
2019-05-26T12:04:56.824Z,99733.87
2019-05-26T12:07:26.610Z,99735.78
2019-05-26T12:09:57.318Z,99734.34
2019-05-26T12:12:24.983Z,99724.80
2019-05-26T12:14:52.304Z,99729.80
2019-05-26T12:17:19.792Z,99719.97
2019-05-26T12:19:47.053Z,99716.72
2019-05-26T12:22:14.334Z,99709.41
2019-05-26T12:24:41.674Z,99715.38
2019-05-26T12:27:08.962Z,99704.77
2019-05-26T12:29:36.682Z,99700.15
2019-05-26T12:32:05.063Z,99701.78
2019-05-26T12:34:32.342Z,99704.50
2019-05-26T12:36:59.593Z,99703.68
2019-05-26T12:39:26.838Z,99695.98
2019-05-26T12:41:54.196Z,99698.19
2019-05-26T12:44:22.047Z,99692.88
2019-05-26T12:46:49.719Z,99687.88
2019-05-26T12:49:17.079Z,99688.98
2019-05-26T12:51:44.410Z,99691.41
2019-05-26T12:54:11.662Z,99685.17
2019-05-26T12:56:38.909Z,99676.00
2019-05-26T12:59:06.163Z,99676.41
2019-05-26T13:01:33.474Z,99676.41
2019-05-26T13:04:00.719Z,99671.94
2019-05-26T13:06:28.112Z,99667.06
2019-05-26T13:08:55.559Z,99673.86
2019-05-26T13:11:23.030Z,99670.98
2019-05-26T13:13:50.270Z,99673.91
2019-05-26T13:16:17.551Z,99670.96
2019-05-26T13:18:44.784Z,99663.56
2019-05-26T13:21:12.419Z,99663.56
2019-05-26T13:23:39.797Z,99673.63
2019-05-26T13:26:07.157Z,99674.26
2019-05-26T13:28:34.519Z,99660.75
2019-05-26T13:31:01.990Z,99663.27
2019-05-26T13:33:29.250Z,99665.33
2019-05-26T13:35:57.796Z,99662.21
2019-05-26T13:38:25.243Z,99662.03
2019-05-26T13:40:52.542Z,99652.35
2019-05-26T13:43:19.804Z,99660.56
2019-05-26T13:45:47.172Z,99657.86
2019-05-26T13:48:14.679Z,99657.86
2019-05-26T13:50:41.990Z,99660.77
2019-05-26T13:53:09.237Z,99640.52
2019-05-26T13:55:36.976Z,99638.98
2019-05-26T13:58:04.501Z,99641.09
2019-05-26T14:00:31.934Z,99633.22
2019-05-26T14:02:59.170Z,99626.53
2019-05-26T14:05:26.448Z,99630.52
2019-05-26T14:07:54.093Z,99626.97
2019-05-26T14:10:34.660Z,99632.01
2019-05-26T14:13:01.895Z,99622.48
2019-05-26T14:15:38.198Z,99619.16
2019-05-26T14:17:59.703Z,99618.07
2019-05-26T14:20:35.666Z,99618.07
2019-05-26T14:23:03.154Z,99617.52
2019-05-26T14:25:30.383Z,99606.51
2019-05-26T14:27:57.652Z,99604.11
2019-05-26T14:30:24.905Z,99606.77
2019-05-26T14:32:52.278Z,99606.63
2019-05-26T14:35:19.501Z,99611.04
2019-05-26T14:38:04.190Z,99611.00
2019-05-26T14:40:41.442Z,99592.11
2019-05-26T14:43:28.884Z,99608.39
2019-05-26T14:46:15.576Z,99599.77
2019-05-26T14:48:56.963Z,99598.41
2019-05-26T14:51:58.757Z,99597.70
2019-05-26T14:54:45.101Z,99591.53
2019-05-26T14:57:15.234Z,99592.11
2019-05-26T14:59:45.465Z,99573.19
2019-05-26T15:02:13.317Z,99584.63
2019-05-26T15:04:41.190Z,99589.77
2019-05-26T15:07:08.597Z,99589.77
2019-05-26T15:09:41.398Z,99586.66
2019-05-26T15:12:23.596Z,99583.69
2019-05-26T15:14:59.342Z,99579.90
2019-05-26T15:17:39.786Z,99575.67
2019-05-26T15:20:24.138Z,99576.18
2019-05-26T15:22:55.261Z,99577.68
2019-05-26T15:25:29.397Z,99566.45
2019-05-26T15:28:01.715Z,99575.50
2019-05-26T15:30:36.451Z,99575.42
2019-05-26T15:33:18.051Z,99577.11
2019-05-26T15:35:56.610Z,99570.63
2019-05-26T15:38:57.762Z,99574.79
2019-05-26T15:41:47.298Z,99558.43
2019-05-26T15:44:23.924Z,99565.90
2019-05-26T15:47:00.050Z,99558.98
2019-05-26T15:49:31.397Z,99559.73
2019-05-26T15:52:07.892Z,99561.11
2019-05-26T15:54:38.036Z,99564.48
2019-05-26T15:57:11.421Z,99553.80
2019-05-26T16:00:07.434Z,99547.59
2019-05-26T16:03:00.614Z,99541.73
2019-05-26T16:05:32.967Z,99539.45
2019-05-26T16:08:12.604Z,99535.59
2019-05-26T16:10:50.472Z,99536.05
2019-05-26T16:13:30.046Z,99536.55
2019-05-26T16:16:10.323Z,99530.62
2019-05-26T16:18:51.878Z,99525.53
2019-05-26T16:21:38.101Z,99518.45
2019-05-26T16:24:20.596Z,99525.83
2019-05-26T16:27:00.282Z,99521.75
2019-05-26T16:29:40.588Z,99513.69
2019-05-26T16:32:13.594Z,99516.83
2019-05-26T16:34:48.937Z,99511.17
2019-05-26T16:37:22.192Z,99511.10
2019-05-26T16:40:20.438Z,99510.76
2019-05-26T16:43:04.537Z,99503.50
2019-05-26T16:45:55.320Z,99501.27
2019-05-26T16:48:18.156Z,99505.80
2019-05-26T16:50:57.201Z,99507.34
2019-05-26T16:53:37.052Z,99509.68
2019-05-26T16:56:11.899Z,99494.31
2019-05-26T16:58:47.966Z,99495.53
2019-05-26T17:01:25.654Z,99490.87
2019-05-26T17:03:57.488Z,99486.80
2019-05-26T17:06:48.063Z,99487.03
2019-05-26T17:09:21.018Z,99482.05
2019-05-26T17:11:56.754Z,99475.67
2019-05-26T17:14:38.278Z,99473.93
2019-05-26T17:17:14.657Z,99467.11
2019-05-26T17:19:44.394Z,99465.13
2019-05-26T17:22:18.266Z,99463.66
2019-05-26T17:24:49.577Z,99459.55
2019-05-26T17:27:24.300Z,99460.26
2019-05-26T17:30:02.438Z,99460.11
2019-05-26T17:32:47.273Z,99458.61
2019-05-26T17:35:22.232Z,99444.70
2019-05-26T17:38:16.591Z,99456.23
2019-05-26T17:40:57.361Z,99459.30
2019-05-26T17:43:36.329Z,99453.52
2019-05-26T17:46:15.190Z,99460.17
2019-05-26T17:48:49.600Z,99457.55
2019-05-26T17:51:26.902Z,99456.14
2019-05-26T17:54:02.537Z,99455.24
2019-05-26T17:56:33.326Z,99462.08
2019-05-26T18:02:16.538Z,99463.48
2019-05-26T18:04:48.310Z,99462.77
2019-05-26T18:07:30.305Z,99462.15
2019-05-26T18:10:04.661Z,99459.58
2019-05-26T18:12:39.258Z,99456.23
2019-05-26T18:15:13.606Z,99452.50
2019-05-26T18:17:49.962Z,99449.30
2019-05-26T18:20:21.292Z,99454.17
2019-05-26T18:22:52.075Z,99444.20
2019-05-26T18:25:21.352Z,99448.25
2019-05-26T18:27:51.078Z,99444.37
2019-05-26T18:30:20.471Z,99446.78
2019-05-26T18:32:51.300Z,99448.34
2019-05-26T18:35:18.907Z,99448.08
2019-05-26T18:37:46.179Z,99445.88
2019-05-26T18:40:13.510Z,99446.36
2019-05-26T18:42:40.860Z,99440.08
2019-05-26T18:45:08.255Z,99443.81
2019-05-26T18:47:35.529Z,99445.83
2019-05-26T18:50:02.872Z,99438.65
2019-05-26T18:52:30.285Z,99436.03
2019-05-26T18:54:57.552Z,99436.22
2019-05-26T18:57:25.039Z,99443.31
2019-05-26T18:59:52.280Z,99430.81
2019-05-26T19:02:19.567Z,99436.69
2019-05-26T19:04:46.860Z,99426.09
2019-05-26T19:07:14.118Z,99424.24
2019-05-26T19:09:41.395Z,99428.58
2019-05-26T19:12:08.856Z,99431.74
2019-05-26T19:14:36.354Z,99441.16
2019-05-26T19:17:03.732Z,99429.77
2019-05-26T19:19:30.983Z,99433.95
2019-05-26T19:21:58.285Z,99424.34
2019-05-26T19:24:25.601Z,99424.50
2019-05-26T19:26:52.935Z,99431.48
2019-05-26T19:29:20.227Z,99426.89
2019-05-26T19:31:47.730Z,99433.59
2019-05-26T19:34:15.191Z,99428.34
2019-05-26T19:36:42.566Z,99430.44
2019-05-26T19:39:10.708Z,99425.28
2019-05-26T19:41:39.478Z,99426.86
2019-05-26T19:44:07.748Z,99429.22
2019-05-26T19:46:35.069Z,99423.77
2019-05-26T19:49:02.353Z,99432.56
2019-05-26T19:51:29.602Z,99431.64
2019-05-26T19:53:56.895Z,99427.24
2019-05-26T19:56:25.281Z,99425.61
2019-05-26T19:58:52.675Z,99425.12
2019-05-26T20:01:19.952Z,99430.52
2019-05-26T20:03:48.372Z,99418.03
2019-05-26T20:06:16.812Z,99426.20
2019-05-26T20:08:44.198Z,99427.59
2019-05-26T20:11:11.506Z,99420.27
2019-05-26T20:13:38.844Z,99420.52
2019-05-26T20:16:06.227Z,99408.61
2019-05-26T20:18:33.792Z,99420.52
2019-05-26T20:21:02.210Z,99415.50
2019-05-26T20:23:29.441Z,99414.79
2019-05-26T20:25:56.769Z,99419.21
2019-05-26T20:28:24.113Z,99408.77
2019-05-26T20:30:51.349Z,99406.25
2019-05-26T20:33:18.654Z,99404.34
2019-05-26T20:35:46.058Z,99400.38
2019-05-26T20:38:13.321Z,99397.83
2019-05-26T20:40:41.563Z,99399.66
2019-05-26T20:43:08.847Z,99394.05
2019-05-26T20:45:36.212Z,99393.33
2019-05-26T20:48:03.480Z,99393.41
2019-05-26T20:50:30.808Z,99396.97
2019-05-26T20:52:58.250Z,99392.69
2019-05-26T20:55:26.589Z,99393.03
2019-05-26T20:57:54.060Z,99392.95
2019-05-26T21:00:21.374Z,99395.99
2019-05-26T21:02:48.946Z,99389.98
2019-05-26T21:05:16.735Z,99385.91
2019-05-26T21:07:44.237Z,99388.33
2019-05-26T21:10:12.670Z,99384.66
2019-05-26T21:12:40.532Z,99391.39
2019-05-26T21:15:08.808Z,99386.70
2019-05-26T21:17:36.328Z,99376.28
2019-05-26T21:20:04.622Z,99375.42
2019-05-26T21:22:32.205Z,99377.38
2019-05-26T21:25:00.185Z,99377.56
2019-05-26T21:27:27.509Z,99370.52
2019-05-26T21:29:54.799Z,99369.34
2019-05-26T21:32:22.207Z,99373.03
2019-05-26T21:34:49.473Z,99366.70
2019-05-26T21:37:16.739Z,99371.01
2019-05-26T21:39:44.007Z,99366.47
2019-05-26T21:42:11.225Z,99365.92
2019-05-26T21:44:38.461Z,99359.80
2019-05-26T21:47:05.762Z,99363.80
2019-05-26T21:49:33.401Z,99367.61
2019-05-26T21:52:00.676Z,99356.20
2019-05-26T21:54:28.000Z,99360.58
2019-05-26T21:56:55.304Z,99365.42
2019-05-26T21:59:22.564Z,99358.81
2019-05-26T22:01:49.837Z,99353.50
2019-05-26T22:04:17.101Z,99356.72
2019-05-26T22:06:46.055Z,99354.95
2019-05-26T22:09:13.305Z,99351.25
2019-05-26T22:11:40.893Z,99351.32
2019-05-26T22:14:08.129Z,99345.73
2019-05-26T22:16:36.048Z,99350.81
2019-05-26T22:19:03.301Z,99344.91
2019-05-26T22:21:30.542Z,99352.11
2019-05-26T22:23:57.827Z,99350.69
2019-05-26T22:26:25.054Z,99349.81
2019-05-26T22:28:52.370Z,99349.98
2019-05-26T22:31:19.648Z,99352.94
2019-05-26T22:33:47.085Z,99347.25
2019-05-26T22:36:14.309Z,99342.32
2019-05-26T22:38:41.612Z,99340.77
2019-05-26T22:41:08.908Z,99347.59
2019-05-26T22:43:37.563Z,99353.02
2019-05-26T22:46:04.784Z,99332.55
2019-05-26T22:48:32.063Z,99335.39
2019-05-26T22:50:59.319Z,99331.00
2019-05-26T22:53:26.572Z,99333.17
2019-05-26T22:55:53.854Z,99333.80
2019-05-26T22:58:21.090Z,99334.83
2019-05-26T23:00:48.625Z,99333.69
2019-05-26T23:03:16.810Z,99328.00
2019-05-26T23:05:44.540Z,99327.18
2019-05-26T23:08:11.904Z,99324.33
2019-05-26T23:10:39.160Z,99324.22
2019-05-26T23:13:06.381Z,99323.50
2019-05-26T23:15:33.672Z,99321.73
2019-05-26T23:18:00.900Z,99315.50
2019-05-26T23:20:28.181Z,99311.45
2019-05-26T23:22:55.454Z,99313.78
2019-05-26T23:25:22.669Z,99304.11
2019-05-26T23:27:49.984Z,99305.48
2019-05-26T23:30:17.261Z,99310.09
2019-05-26T23:32:44.603Z,99313.06
2019-05-26T23:35:13.842Z,99301.91
2019-05-26T23:37:41.214Z,99298.05
2019-05-26T23:40:08.534Z,99287.90
2019-05-26T23:42:35.936Z,99293.09
2019-05-26T23:45:04.723Z,99289.83
2019-05-26T23:47:32.213Z,99291.02
2019-05-26T23:49:59.619Z,99294.79
2019-05-26T23:52:28.059Z,99305.44
2019-05-26T23:54:55.454Z,99294.63
2019-05-26T23:57:22.747Z,99300.52
2019-05-26T23:59:50.063Z,99297.36
